• Join FlightAware (Why Join?)
  • Login
  • US Flag 
07:51AM EST


 

Airport Tracker/Info


-or-


 

Live Flight TrackerFlight Track Log ✈ EJA122 ✈ 09-Jul-2013 ✈ KOPF - KSAV

Flight Track Log - Related Links

Times and Time Zones

All times are in EDT time to prevent confusion due to time zone crossing. See the EJA122 flight status page for this flight to view local times or setup timezone preferences in your user account.

Time Position Orientation Groundspeed Altitude Reporting Facility
EDT Latitude Longitude Course Direction KTS MPH feet Rate Location/Type
12:57PM 25.9111 -80.2639 78° East 143 165 500  Level Miami Center
12:58PM 25.9278 -80.1742 78° East 280 322 4,600 3,480 Climbing Miami Center
12:59PM 25.9942 -80.1992 341° North 272 313 8,700 2,940 Climbing Miami Center
01:01PM 26.0664 -80.2428 332° Northwest 286 329 11,200 2,220 Climbing Miami Center
01:02PM 26.1383 -80.2911 329° Northwest 281 323 13,600 2,580 Climbing Miami Center
01:03PM 26.2161 -80.3489 326° Northwest 302 348 16,400 2,220 Climbing Miami Center
01:04PM 26.2689 -80.4131 313° West 302 348 18,100 1,800 Climbing Miami Center
01:05PM 26.3472 -80.4642 330° Northwest 302 348 20,000 1,500 Climbing Miami Center
01:06PM 26.4217 -80.4894 343° North 303 349 21,100 1,200 Climbing Miami Center
01:07PM 26.5169 -80.5250 342° North 323 372 22,500 1,260 Climbing Miami Center
01:08PM 26.5975 -80.5553 341° North 330 380 23,700 1,200 Climbing Miami Center
01:09PM 26.6989 -80.5956 340° North 341 392 25,000 1,140 Climbing Miami Center
01:10PM 26.7836 -80.6286 341° North 351 404 26,000 780 Climbing Miami Center
01:11PM 26.8808 -80.6667 341° North 363 418 26,600 720 Climbing Miami Center
01:12PM 26.9839 -80.7097 340° North 368 423 27,500 900 Climbing Miami Center
01:13PM 27.0875 -80.7481 342° North 380 437 28,500 960 Climbing Miami Center
01:14PM 27.1906 -80.7914 339° North 386 444 29,500 900 Climbing Miami Center
01:15PM 27.2939 -80.8322 341° North 386 444 30,400 720 Climbing Miami Center
01:16PM 27.3972 -80.8708 342° North 386 444 31,000 300 Climbing Miami Center
01:17PM 27.5044 -80.9144 340° North 392 451 31,000  Level Miami Center
01:18PM 27.6161 -80.9581 341° North 405 466 31,000  Level Miami Center
01:19PM 27.7336 -81.0044 341° North 423 487 31,000  Level Miami Center
01:20PM 27.8492 -81.0511 340° North 435 501 31,000  Level Miami Center
01:21PM 27.9792 -81.1053 340° North 448 516 31,000  Level Miami Center
01:22PM 28.0944 -81.1542 339° North 442 509 31,000  Level Miami Center
01:23PM 28.1956 -81.1958 340° North 435 501 31,000  Level Miami Center
01:24PM 28.3067 -81.2425 340° North 429 494 31,000  Level Miami Center
01:25PM 28.4142 -81.2797 343° North 414 476 31,000  Level Miami Center
01:26PM 28.5211 -81.3264 339° North 402 463 31,000  Level Miami Center
01:27PM 28.6497 -81.3500 351° North 397 457 31,000  Level Jacksonville Center
01:28PM 28.7628 -81.3578 357° North 392 451 31,000  Level Jacksonville Center
01:29PM 28.8714 -81.3703 354° North 392 451 31,000  Level Jacksonville Center
01:30PM 28.9819 -81.3783 356° North 392 451 31,000  Level Jacksonville Center
01:31PM 29.0908 -81.3908 354° North 386 444 31,000  Level Jacksonville Center
01:32PM 29.1972 -81.4011 355° North 386 444 31,000  Level Jacksonville Center
01:33PM 29.3058 -81.4089 356° North 386 444 31,000  Level Jacksonville Center
01:34PM 29.4167 -81.4144 357° North 391 450 31,000  Level Jacksonville Center
01:35PM 29.5356 -81.4150 360° North 384 442 31,000  Level Jacksonville Center
01:36PM 29.6442 -81.4158 360° North 384 442 31,000  Level Jacksonville Center
01:37PM 29.7506 -81.4189 359° North 384 442 31,000  Level Jacksonville Center
01:38PM 29.8592 -81.4172 North 384 442 31,000  Level Jacksonville Center
01:39PM 29.9658 -81.4181 360° North 384 442 31,000 -720 Level Jacksonville Center
01:40PM 30.0786 -81.4211 359° North 384 442 29,600 -1,800 Descending Jacksonville Center
01:41PM 30.1994 -81.4217 360° North 405 466 27,400 -2,220 Descending Jacksonville Center
01:42PM 30.3269 -81.4222 360° North 430 495 25,200 -1,740 Descending Jacksonville Center
01:43PM 30.4542 -81.4225 360° North 448 516 24,000 -600 Descending Jacksonville Center
01:44PM 30.5628 -81.4258 358° North 448 516 24,000  Level Jacksonville Center
01:45PM 30.6861 -81.4286 359° North 442 509 24,000 -120 Level Jacksonville Center
01:46PM 30.8094 -81.4317 359° North 437 503 23,800 -1,140 Descending Jacksonville Center
01:47PM 30.9367 -81.4344 359° North 442 509 21,800 -2,040 Descending Jacksonville Center
01:48PM 31.0578 -81.4350 360° North 436 502 19,800 -2,040 Descending Jacksonville Center
01:49PM 31.1728 -81.4381 359° North 421 484 17,800 -2,040 Descending Jacksonville Center
01:51PM 31.4000 -81.4006 North 387 445 13,800 -1,980 Descending Jacksonville Center
01:52PM 31.4936 -81.3794 11° North 382 440 11,900 -1,500 Descending Jacksonville Center
01:53PM 31.6017 -81.3461 15° North 374 430 10,900 -840 Descending Jacksonville Center
01:54PM 31.6933 -81.3178 15° North 354 407 10,300 -840 Descending Jacksonville Center
01:55PM 31.7703 -81.2969 13° North 293 337 9,300 -1,080 Descending Jacksonville Center
01:56PM 31.8411 -81.2786 12° North 276 318 8,200 -1,080 Descending Jacksonville Center
01:57PM 31.9183 -81.2894 353° North 276 318 7,200 -1,320 Descending Jacksonville Center
01:58PM 32.0042 -81.3025 353° North 276 318 5,600 -1,980 Descending Jacksonville Center
01:59PM 32.0775 -81.3161 351° North 276 318 3,300 -1,680 Descending Jacksonville Center
02:00PM 32.1211 -81.3006 17° North 178 205 2,300 -1,380 Descending Jacksonville Center
02:01PM 32.1267 -81.2589 81° East 133 153 600 -1,740 Descending Jacksonville Center
02:03PM 32.1167 -81.2000 180° South  Level FlightAware Approximate
02:10PM 32.1276 -81.2021 180° South  Level Estimated
02:11PM 32.1276 -81.2021 180° South  Level Estimated